Time;durP1;ratioP1;P1;durP2;ratioP2;P2;SDS_P1;SDS_P2;PMS_P1;PMS_P2;Temp;Humidity;BMP_temperature;BMP_pressure;BME280_temperature;BME280_humidity;BME280_pressure;Samples;Min_cycle;Max_cycle;Signal;HPM_P1;HPM_P2
2024/01/22 00:00:20;;;;;;;17.67;7.88;;;;;;;-9.82;70.01;101744.53;4973934;28;20038;-77
2024/01/22 00:02:49;;;;;;;19.48;7.35;;;;;;;-9.84;70.15;101747.78;4989261;28;20046;-79
2024/01/22 00:05:15;;;;;;;14.43;7.15;;;;;;;-9.96;69.93;101722.94;5008157;28;20046;-76
2024/01/22 00:07:42;;;;;;;15.10;6.35;;;;;;;-9.88;69.99;101748.22;5012402;28;20080;-75
2024/01/22 00:10:14;;;;;;;17.55;7.78;;;;;;;-10.00;69.85;101742.78;5002330;28;20038;-73
2024/01/22 00:12:48;;;;;;;15.85;6.68;;;;;;;-10.03;69.97;101744.09;5009842;28;20056;-76
2024/01/22 00:15:15;;;;;;;16.35;6.88;;;;;;;-10.54;70.09;101665.78;5002349;28;20081;-72
2024/01/22 00:17:43;;;;;;;18.03;7.27;;;;;;;-10.01;69.94;101766.19;4995070;28;20092;-77
2024/01/22 00:20:12;;;;;;;17.90;7.53;;;;;;;-10.04;70.17;101762.47;5001386;28;22282;-73
2024/01/22 00:22:38;;;;;;;21.33;7.25;;;;;;;-10.11;69.43;101753.38;4987100;28;20034;-72
2024/01/22 00:25:13;;;;;;;17.10;7.28;;;;;;;-10.43;69.89;101699.66;5013180;28;20053;-73
2024/01/22 00:27:46;;;;;;;17.58;6.90;;;;;;;-10.23;69.41;101755.50;4970485;28;20050;-73
2024/01/22 00:30:13;;;;;;;20.85;7.82;;;;;;;-10.48;70.32;101692.50;4985015;28;20072;-73
2024/01/22 00:32:40;;;;;;;18.10;7.55;;;;;;;-10.39;70.40;101712.72;4984499;28;20056;-72
2024/01/22 00:35:20;;;;;;;20.37;6.47;;;;;;;-10.45;70.42;101691.91;5001949;28;20050;-72
2024/01/22 00:37:46;;;;;;;20.40;7.50;;;;;;;-10.25;70.20;101735.91;5013577;28;20092;-72
2024/01/22 00:40:22;;;;;;;16.60;6.97;;;;;;;-10.47;70.30;101705.97;4980911;28;20046;-72
2024/01/22 00:42:48;;;;;;;19.53;8.37;;;;;;;-10.52;70.53;101687.88;4986856;28;20048;-77
2024/01/22 00:45:14;;;;;;;19.85;7.15;;;;;;;-10.29;70.23;101734.69;4996612;28;20038;-75
2024/01/22 00:47:44;;;;;;;22.07;7.53;;;;;;;-10.41;70.04;101715.81;5000197;28;20092;-75
2024/01/22 00:50:14;;;;;;;18.27;7.27;;;;;;;-10.43;70.11;101717.28;4992873;28;20631;-74
2024/01/22 00:52:49;;;;;;;15.33;6.87;;;;;;;-10.40;69.60;101735.22;5004607;28;20045;-75
2024/01/22 00:55:18;;;;;;;20.10;7.63;;;;;;;-10.40;70.34;101723.50;5015487;28;20076;-75
2024/01/22 00:57:45;;;;;;;15.37;6.73;;;;;;;-10.44;70.24;101723.91;4966577;28;20042;-75
2024/01/22 01:00:15;;;;;;;20.60;7.37;;;;;;;-10.42;69.88;101727.50;5000223;28;20042;-74
2024/01/22 01:02:41;;;;;;;16.13;6.95;;;;;;;-10.85;69.96;101660.00;4992890;28;20038;-75
2024/01/22 01:05:15;;;;;;;20.77;8.20;;;;;;;-10.66;70.11;101703.13;4987179;28;20085;-76
2024/01/22 01:07:49;;;;;;;15.75;6.72;;;;;;;-10.34;69.68;101751.84;5001416;28;20184;-74
2024/01/22 01:10:17;;;;;;;15.43;6.43;;;;;;;-10.57;69.57;101706.63;5016072;28;20049;-74
2024/01/22 01:12:45;;;;;;;20.70;7.20;;;;;;;-10.47;69.57;101736.16;5010802;28;20053;-77
2024/01/22 01:15:11;;;;;;;15.40;6.73;;;;;;;-10.62;69.58;101705.25;5003108;28;20045;-77
2024/01/22 01:17:38;;;;;;;17.90;7.23;;;;;;;-10.49;69.83;101731.00;5010742;28;20042;-78
2024/01/22 01:20:05;;;;;;;17.83;7.47;;;;;;;-10.73;69.83;101706.63;5003968;28;20038;-76
2024/01/22 01:22:34;;;;;;;17.10;7.03;;;;;;;-10.68;70.16;101714.66;4993107;28;20042;-80
2024/01/22 01:25:02;;;;;;;18.93;7.27;;;;;;;-10.61;70.05;101725.53;5005149;28;20041;-76
2024/01/22 01:27:33;;;;;;;15.40;6.00;;;;;;;-10.84;69.65;101694.50;5010106;28;21014;-75
2024/01/22 01:29:59;;;;;;;18.77;6.90;;;;;;;-10.60;69.54;101744.94;5011943;28;20056;-75
2024/01/22 01:32:26;;;;;;;15.63;6.83;;;;;;;-10.85;69.91;101700.28;5000038;28;20042;-74
2024/01/22 01:34:52;;;;;;;17.57;6.83;;;;;;;-10.78;70.54;101706.13;5014004;28;20057;-75
2024/01/22 01:37:19;;;;;;;16.17;7.30;;;;;;;-10.54;69.24;101743.81;4985868;28;20064;-75
2024/01/22 01:39:45;;;;;;;20.30;6.60;;;;;;;-10.63;69.03;101736.19;5011611;28;20053;-76
2024/01/22 01:42:12;;;;;;;22.70;8.53;;;;;;;-11.05;70.07;101669.75;4970487;28;20412;-75
2024/01/22 01:44:41;;;;;;;16.73;7.07;;;;;;;-10.54;69.59;101746.34;5009324;28;20080;-73
2024/01/22 01:47:11;;;;;;;22.20;7.97;;;;;;;-10.58;69.73;101744.22;4997999;28;20049;-72
2024/01/22 01:49:38;;;;;;;16.53;6.60;;;;;;;-10.64;69.45;101739.44;5002048;28;20389;-73
2024/01/22 01:52:09;;;;;;;16.97;6.63;;;;;;;-10.64;70.39;101717.66;5011862;28;20042;-74
2024/01/22 01:54:37;;;;;;;21.47;7.03;;;;;;;-10.49;69.73;101732.63;5003772;28;20073;-80
2024/01/22 01:57:10;;;;;;;17.77;6.80;;;;;;;-10.38;69.91;101741.31;5010922;28;20445;-80
2024/01/22 01:59:42;;;;;;;16.90;6.13;;;;;;;-10.43;69.47;101735.78;5018292;28;20096;-78
2024/01/22 02:02:14;;;;;;;20.03;6.53;;;;;;;-10.35;69.93;101749.13;4988817;28;20302;-80
2024/01/22 02:04:40;;;;;;;18.60;7.40;;;;;;;-10.33;70.00;101741.03;5019140;28;20042;-81
2024/01/22 02:07:08;;;;;;;16.33;6.88;;;;;;;-10.23;70.54;101742.91;5004484;28;20046;-80
2024/01/22 02:09:54;;;;;;;13.40;5.93;;;;;;;-10.24;69.88;101727.59;5013841;28;20044;-80
2024/01/22 02:12:21;;;;;;;15.77;6.32;;;;;;;-10.15;70.02;101736.16;5005488;28;20064;-80
2024/01/22 02:14:48;;;;;;;18.50;6.78;;;;;;;-10.09;70.01;101723.28;5016608;28;20092;-78
2024/01/22 02:17:16;;;;;;;15.35;5.78;;;;;;;-9.82;70.69;101752.09;5021862;28;20042;-79
2024/01/22 02:19:43;;;;;;;14.18;6.65;;;;;;;-9.95;70.27;101732.28;5002650;28;20096;-71
2024/01/22 02:22:10;;;;;;;15.98;6.70;;;;;;;-9.72;70.04;101753.22;5000709;28;20073;-72
2024/01/22 02:24:39;;;;;;;15.55;6.43;;;;;;;-9.73;70.18;101725.34;5001469;28;20064;-72
2024/01/22 02:27:05;;;;;;;12.43;6.63;;;;;;;-9.46;70.39;101744.94;5000525;28;20059;-72
2024/01/22 02:29:31;;;;;;;16.05;6.55;;;;;;;-9.44;70.36;101738.44;5011764;28;20101;-73
2024/01/22 02:31:58;;;;;;;16.65;6.72;;;;;;;-9.33;70.48;101756.25;5007765;28;20058;-74
2024/01/22 02:34:27;;;;;;;16.58;6.35;;;;;;;-9.21;70.61;101769.22;5002671;28;20042;-75
2024/01/22 02:36:56;;;;;;;18.88;6.50;;;;;;;-9.17;70.46;101753.69;4967874;28;20045;-74
2024/01/22 02:39:22;;;;;;;14.32;6.07;;;;;;;-9.27;70.05;101736.72;4977078;28;20048;-74
2024/01/22 02:41:49;;;;;;;14.25;6.70;;;;;;;-9.30;69.97;101727.22;4981551;28;20120;-73
2024/01/22 02:44:16;;;;;;;12.18;5.85;;;;;;;-9.27;70.46;101714.03;4992049;28;20050;-75
2024/01/22 02:46:41;;;;;;;15.15;5.45;;;;;;;-9.04;70.41;101741.56;5003423;28;20125;-72
2024/01/22 02:49:11;;;;;;;11.43;5.95;;;;;;;-9.13;70.17;101723.00;5002299;28;20045;-73
2024/01/22 02:51:37;;;;;;;16.63;6.65;;;;;;;-8.99;70.42;101737.00;4981400;28;20352;-76
2024/01/22 02:54:06;;;;;;;16.00;6.03;;;;;;;-8.99;69.95;101732.81;4969488;28;20109;-72
2024/01/22 02:57:04;;;;;;;15.45;5.72;;;;;;;-9.00;70.49;101725.13;5014544;28;20034;-77
2024/01/22 02:59:36;;;;;;;16.17;6.10;;;;;;;-9.00;70.50;101733.56;5001930;28;20062;-74
2024/01/22 03:02:03;;;;;;;17.63;6.30;;;;;;;-8.87;70.29;101737.34;4991317;28;20042;-79
2024/01/22 03:04:35;;;;;;;13.98;6.50;;;;;;;-8.96;70.44;101717.13;5017637;28;20053;-78
2024/01/22 03:07:11;;;;;;;12.25;6.13;;;;;;;-8.79;70.44;101749.06;5003388;28;20048;-78
2024/01/22 03:09:44;;;;;;;14.57;6.28;;;;;;;-8.87;70.55;101715.50;5013815;28;20021;-81
2024/01/22 03:12:25;;;;;;;11.10;4.95;;;;;;;-8.68;70.62;101735.00;5005167;28;20042;-72
2024/01/22 03:14:52;;;;;;;12.75;5.38;;;;;;;-8.66;70.23;101738.56;5016879;28;20041;-73
2024/01/22 03:17:19;;;;;;;13.10;5.95;;;;;;;-8.82;70.12;101709.28;4996295;28;20053;-76
2024/01/22 03:19:46;;;;;;;15.65;5.70;;;;;;;-8.73;70.21;101729.50;4991156;28;20048;-80
2024/01/22 03:22:13;;;;;;;11.38;5.38;;;;;;;-8.61;70.42;101727.28;4987310;28;20042;-81
2024/01/22 03:24:42;;;;;;;15.18;5.38;;;;;;;-8.56;70.48;101727.75;4975175;28;20038;-81
2024/01/22 03:27:12;;;;;;;15.00;6.60;;;;;;;-8.61;70.40;101716.31;5017190;28;20053;-80
2024/01/22 03:29:43;;;;;;;12.20;5.53;;;;;;;-8.58;70.47;101698.91;5018531;28;20036;-80
2024/01/22 03:32:11;;;;;;;13.57;6.00;;;;;;;-8.32;70.60;101732.66;4997162;28;20038;-81
2024/01/22 03:34:40;;;;;;;14.40;6.00;;;;;;;-8.31;70.43;101733.56;5020171;28;20061;-82
2024/01/22 03:37:06;;;;;;;13.68;5.93;;;;;;;-8.30;70.39;101729.38;4990155;28;20053;-83
2024/01/22 03:39:33;;;;;;;10.73;5.95;;;;;;;-8.51;70.15;101693.75;5008719;28;20512;-74
2024/01/22 03:42:00;;;;;;;13.75;6.45;;;;;;;-8.31;70.34;101725.97;4979634;28;20184;-72
2024/01/22 03:44:31;;;;;;;11.02;5.35;;;;;;;-8.68;70.32;101674.41;5007921;28;20037;-74
2024/01/22 03:47:01;;;;;;;13.63;6.15;;;;;;;-8.68;70.46;101662.69;4994387;28;20132;-75
2024/01/22 03:49:29;;;;;;;13.38;5.78;;;;;;;-8.40;70.49;101714.97;4984407;28;20034;-76
2024/01/22 03:51:59;;;;;;;14.88;6.18;;;;;;;-8.26;70.18;101718.84;5005083;28;20046;-74
2024/01/22 03:54:27;;;;;;;14.27;6.15;;;;;;;-8.35;70.49;101719.72;5001126;28;20531;-76
2024/01/22 03:56:56;;;;;;;13.13;6.22;;;;;;;-8.27;70.41;101719.59;5009283;28;20070;-75
2024/01/22 03:59:23;;;;;;;17.30;5.97;;;;;;;-8.26;70.38;101723.91;5010086;28;20054;-75
2024/01/22 04:01:54;;;;;;;12.60;6.18;;;;;;;-8.29;70.47;101709.34;5001609;28;20050;-79
2024/01/22 04:04:23;;;;;;;16.73;6.75;;;;;;;-8.33;69.96;101699.69;4984301;28;20045;-80
2024/01/22 04:06:51;;;;;;;15.77;6.63;;;;;;;-8.30;70.23;101709.19;4970548;28;20042;-82
2024/01/22 04:09:34;;;;;;;14.70;6.28;;;;;;;-8.43;70.18;101687.78;5014089;28;20068;-79
2024/01/22 04:12:03;;;;;;;15.55;6.13;;;;;;;-8.14;70.49;101727.59;4985523;28;20046;-78
2024/01/22 04:14:30;;;;;;;15.90;6.78;;;;;;;-8.15;70.50;101712.31;5013040;28;20084;-79
2024/01/22 04:16:57;;;;;;;15.05;6.00;;;;;;;-8.23;70.48;101694.75;4991011;28;20133;-80
2024/01/22 04:19:23;;;;;;;13.25;5.88;;;;;;;-8.03;70.59;101721.97;5011393;28;20043;-79
2024/01/22 04:21:57;;;;;;;14.48;6.20;;;;;;;-8.15;70.37;101695.50;5010734;28;20050;-79
2024/01/22 04:24:23;;;;;;;12.68;5.75;;;;;;;-8.12;70.32;101692.41;5017685;28;20041;-81
2024/01/22 04:26:49;;;;;;;12.32;5.55;;;;;;;-8.12;70.23;101692.41;4995659;28;20045;-78
2024/01/22 04:29:18;;;;;;;16.00;5.30;;;;;;;-8.00;70.57;101718.84;5014498;28;20042;-81
2024/01/22 04:31:44;;;;;;;12.15;5.40;;;;;;;-8.17;70.76;101682.72;4984001;28;20041;-77
2024/01/22 04:34:10;;;;;;;13.65;5.45;;;;;;;-7.92;70.55;101719.56;5001451;28;20048;-80
2024/01/22 04:36:37;;;;;;;13.60;5.63;;;;;;;-7.98;70.53;101713.94;4997464;28;20034;-78
2024/01/22 04:39:08;;;;;;;12.73;5.72;;;;;;;-7.93;70.43;101713.63;5010833;28;20076;-79
2024/01/22 04:41:35;;;;;;;;;;;;;;;-7.85;70.26;101716.91;4999994;28;20121;-78
2024/01/22 04:44:01;;;;;;;11.60;5.93;;;;;;;-7.93;70.49;101702.63;4992305;28;19945;-77
2024/01/22 04:46:27;;;;;;;14.23;6.00;;;;;;;-7.79;70.62;101714.06;5010548;28;20420;-77
2024/01/22 04:48:53;;;;;;;14.73;6.03;;;;;;;-7.74;70.26;101712.88;4990217;28;20097;-76
2024/01/22 04:51:19;;;;;;;12.73;5.45;;;;;;;-7.89;70.25;101685.38;4998909;28;20033;-81
2024/01/22 04:53:45;;;;;;;16.08;6.05;;;;;;;-7.76;70.34;101702.63;4983182;28;20239;-76
2024/01/22 04:56:18;;;;;;;11.63;5.85;;;;;;;-7.85;70.35;101689.09;4997550;28;20052;-77
2024/01/22 04:58:44;;;;;;;17.45;6.43;;;;;;;-7.77;70.24;101693.25;5008916;28;20061;-75
2024/01/22 05:01:12;;;;;;;12.95;6.35;;;;;;;-7.70;70.53;101697.25;5002486;28;20045;-77
2024/01/22 05:03:44;;;;;;;16.23;6.40;;;;;;;-7.68;70.08;101695.75;4986414;28;20069;-75
2024/01/22 05:06:10;;;;;;;14.60;6.68;;;;;;;-7.73;70.64;101681.78;5003515;28;20065;-76
2024/01/22 05:08:36;;;;;;;16.00;6.88;;;;;;;-7.50;70.70;101705.81;4982747;28;20109;-76
2024/01/22 05:11:02;;;;;;;15.82;6.50;;;;;;;-7.68;70.49;101683.09;4982001;28;20441;-76
2024/01/22 05:13:29;;;;;;;16.27;6.10;;;;;;;-7.53;70.40;101705.53;5002423;28;20092;-76
2024/01/22 05:16:01;;;;;;;15.02;6.75;;;;;;;-7.49;70.33;101723.66;5017523;28;20531;-79
2024/01/22 05:18:33;;;;;;;17.48;6.72;;;;;;;-7.48;70.44;101724.56;4977367;28;20101;-78
2024/01/22 05:21:00;;;;;;;16.98;5.75;;;;;;;-7.49;70.31;101720.25;4999006;28;20069;-79
2024/01/22 05:23:36;;;;;;;11.65;5.78;;;;;;;-7.52;70.34;101727.53;5009545;28;20038;-76
2024/01/22 05:26:12;;;;;;;14.50;5.90;;;;;;;-7.51;70.48;101706.56;4995250;28;20042;-76
2024/01/22 05:28:41;;;;;;;16.88;6.50;;;;;;;-7.85;70.49;101637.66;4998594;28;20050;-77
2024/01/22 05:31:07;;;;;;;15.68;6.35;;;;;;;-7.61;70.64;101682.91;4985747;28;20485;-77
2024/01/22 05:33:36;;;;;;;14.25;6.22;;;;;;;-7.61;70.31;101693.03;4997681;28;20133;-76
2024/01/22 05:36:10;;;;;;;20.70;6.55;;;;;;;-7.93;70.68;101645.38;4983525;28;20038;-77
2024/01/22 05:38:42;;;;;;;13.90;6.75;;;;;;;-7.63;70.59;101686.97;5000445;28;20061;-80
2024/01/22 05:41:18;;;;;;;14.57;5.90;;;;;;;-7.68;70.56;101682.19;5001784;28;20048;-71
2024/01/22 05:43:44;;;;;;;12.40;5.82;;;;;;;-7.52;70.45;101704.78;5010729;28;20045;-70
2024/01/22 05:46:13;;;;;;;13.15;5.85;;;;;;;-7.53;70.39;101700.47;4985107;28;20447;-72
2024/01/22 05:48:45;;;;;;;13.55;6.32;;;;;;;-7.26;70.65;101705.59;4984493;28;20042;-72
2024/01/22 05:51:14;;;;;;;11.77;5.60;;;;;;;-7.24;70.82;101655.13;4997507;28;20212;-72
2024/01/22 05:53:40;;;;;;;13.43;6.72;;;;;;;-6.88;70.16;101703.94;5000475;28;20034;-76
2024/01/22 05:56:09;;;;;;;22.25;7.57;;;;;;;-6.96;70.22;101688.94;4983886;28;20052;-75
2024/01/22 05:58:35;;;;;;;19.90;7.88;;;;;;;-6.85;70.20;101714.34;5006266;28;20077;-74
2024/01/22 06:01:01;;;;;;;18.75;7.95;;;;;;;-6.96;70.21;101710.81;5007726;28;20038;-74
2024/01/22 06:03:27;;;;;;;19.35;7.32;;;;;;;-7.02;70.05;101705.19;5014296;28;20053;-75
2024/01/22 06:05:53;;;;;;;16.73;7.05;;;;;;;-7.16;70.16;101687.09;5011389;28;20042;-76
2024/01/22 06:08:22;;;;;;;19.38;7.22;;;;;;;-7.01;70.15;101715.47;5017418;28;20499;-76
2024/01/22 06:10:50;;;;;;;13.68;6.45;;;;;;;-7.24;70.56;101665.22;4999450;28;20037;-73
2024/01/22 06:13:17;;;;;;;16.40;7.15;;;;;;;-7.24;70.43;101660.19;4968283;28;20046;-75
2024/01/22 06:15:43;;;;;;;19.38;8.02;;;;;;;-6.98;70.32;101689.53;5011910;28;20037;-76
2024/01/22 06:18:19;;;;;;;18.58;7.97;;;;;;;-6.80;70.72;101720.72;4969503;28;20113;-76
2024/01/22 06:20:49;;;;;;;22.35;8.05;;;;;;;-6.78;70.13;101719.22;5007208;28;20049;-75
2024/01/22 06:23:15;;;;;;;19.00;8.45;;;;;;;-6.96;70.05;101701.59;4983958;28;20068;-78
2024/01/22 06:25:44;;;;;;;16.88;7.70;;;;;;;-6.90;70.26;101713.94;5005903;28;20080;-78
2024/01/22 06:28:10;;;;;;;18.50;9.48;;;;;;;-7.05;70.06;101684.66;5010382;28;20927;-75
2024/01/22 06:30:36;;;;;;;20.33;8.55;;;;;;;-6.72;70.48;101729.03;5001904;28;20065;-78
2024/01/22 06:33:11;;;;;;;21.90;10.20;;;;;;;-6.83;70.17;101713.72;5011952;28;20042;-75
2024/01/22 06:35:37;;;;;;;23.05;10.82;;;;;;;-6.93;70.23;101700.06;4978989;28;20052;-75
2024/01/22 06:38:05;;;;;;;31.13;11.32;;;;;;;-6.67;70.35;101741.34;4968033;28;20112;-71
2024/01/22 06:40:34;;;;;;;22.15;9.93;;;;;;;-6.53;70.39;101736.66;4972303;28;20062;-71
2024/01/22 06:43:01;;;;;;;18.65;9.35;;;;;;;-6.56;70.15;101717.00;5014250;28;20053;-72
2024/01/22 06:45:28;;;;;;;17.67;8.68;;;;;;;-6.33;70.44;101725.78;4967910;28;20037;-75
2024/01/22 06:47:54;;;;;;;18.08;8.30;;;;;;;-6.17;70.20;101738.19;4980125;28;20127;-71
2024/01/22 06:50:22;;;;;;;18.58;8.55;;;;;;;-5.97;70.60;101751.72;5014356;28;20038;-72
2024/01/22 06:52:52;;;;;;;14.77;7.43;;;;;;;-5.84;70.66;101757.13;4985142;28;20112;-73
2024/01/22 06:55:23;;;;;;;17.77;7.95;;;;;;;-6.15;70.52;101675.84;4996800;28;20145;-73
2024/01/22 06:57:53;;;;;;;16.13;7.30;;;;;;;-5.71;70.06;101750.59;4993400;28;20046;-72
2024/01/22 07:00:43;;;;;;;14.63;6.93;;;;;;;-5.73;70.48;101734.38;5014378;28;20037;-72
2024/01/22 07:03:24;;;;;;;15.07;6.75;;;;;;;-5.69;70.31;101741.50;4994763;28;20110;-73
2024/01/22 07:05:57;;;;;;;13.20;6.50;;;;;;;-5.68;70.22;101725.50;4998718;28;20042;-74
2024/01/22 07:08:24;;;;;;;15.57;6.40;;;;;;;-5.79;69.81;101687.41;4982583;28;20042;-74
2024/01/22 07:10:50;;;;;;;18.40;7.03;;;;;;;-5.61;69.83;101710.03;5009730;28;20034;-73
2024/01/22 07:13:19;;;;;;;14.30;6.05;;;;;;;-5.45;69.89;101740.19;4985333;28;20037;-75
2024/01/22 07:15:54;;;;;;;10.68;5.72;;;;;;;-5.29;70.01;101740.75;5000972;28;20041;-79
2024/01/22 07:18:21;;;;;;;17.15;6.53;;;;;;;-5.43;69.72;101669.28;5008333;28;20096;-77
2024/01/22 07:20:52;;;;;;;13.40;6.13;;;;;;;-4.97;70.02;101735.75;4980054;28;20056;-76
2024/01/22 07:23:21;;;;;;;12.85;5.95;;;;;;;-4.77;69.70;101735.78;4998417;28;20062;-78
2024/01/22 07:25:54;;;;;;;15.38;5.68;;;;;;;-4.80;70.08;101702.50;5008756;28;20056;-77
2024/01/22 07:28:24;;;;;;;13.90;5.57;;;;;;;-4.44;70.23;101711.44;4999863;28;20050;-83
2024/01/22 07:31:02;;;;;;;12.32;5.80;;;;;;;-3.80;70.17;101729.22;5015398;28;20015;-79
2024/01/22 07:33:34;;;;;;;12.95;5.68;;;;;;;-2.22;70.65;101733.63;5002202;28;20065;-79
2024/01/22 07:36:00;;;;;;;12.57;5.60;;;;;;;-1.63;69.92;101704.66;5009000;28;20042;-77
2024/01/22 07:38:54;;;;;;;10.38;4.90;;;;;;;-1.60;69.06;101686.13;5003585;28;20172;-74
2024/01/22 07:41:23;;;;;;;15.32;6.07;;;;;;;-1.45;69.03;101696.56;4985196;28;20037;-76
2024/01/22 07:43:55;;;;;;;13.82;5.93;;;;;;;-2.06;68.11;101574.91;4981879;28;20057;-76
2024/01/22 07:46:21;;;;;;;13.35;5.88;;;;;;;-1.55;68.35;101641.41;4983747;28;20136;-75
2024/01/22 07:48:53;;;;;;;10.73;5.47;;;;;;;-1.16;68.22;101687.44;5012361;28;20038;-75
2024/01/22 07:51:30;;;;;;;11.77;5.93;;;;;;;-1.17;68.12;101701.00;4996061;28;20084;-74
2024/01/22 07:53:56;;;;;;;14.18;6.03;;;;;;;-1.43;67.29;101675.44;4984408;28;20030;-75
2024/01/22 07:56:22;;;;;;;10.85;5.43;;;;;;;-0.97;68.27;101715.16;4990174;28;20038;-73
2024/01/22 07:58:49;;;;;;;11.55;5.70;;;;;;;-0.89;68.12;101677.34;4978383;28;20042;-71
2024/01/22 08:01:18;;;;;;;10.60;5.47;;;;;;;-0.65;67.66;101689.22;4982518;28;20100;-71
2024/01/22 08:03:47;;;;;;;10.55;5.07;;;;;;;-0.62;66.74;101694.56;5000858;28;20080;-75
2024/01/22 08:06:13;;;;;;;13.43;5.82;;;;;;;-0.62;66.99;101689.44;5001803;28;20061;-73
2024/01/22 08:08:41;;;;;;;11.88;5.60;;;;;;;-0.66;66.55;101673.78;4993342;28;20038;-70
2024/01/22 08:11:07;;;;;;;9.88;5.10;;;;;;;-0.77;66.30;101666.28;5014240;28;20093;-69
2024/01/22 08:13:37;;;;;;;11.43;5.57;;;;;;;-0.50;66.04;101674.03;4983725;28;20042;-72
2024/01/22 08:16:07;;;;;;;11.18;5.82;;;;;;;-0.64;66.48;101621.97;5000571;28;20045;-72
2024/01/22 08:18:36;;;;;;;10.68;5.88;;;;;;;-0.20;66.17;101674.22;4983130;28;20141;-66
2024/01/22 08:21:05;;;;;;;11.98;5.80;;;;;;;-0.19;66.28;101647.84;5015057;28;20070;-68
2024/01/22 08:23:35;;;;;;;12.43;5.85;;;;;;;0.00;65.55;101636.25;5009638;28;20056;-69
2024/01/22 08:26:01;;;;;;;11.80;6.32;;;;;;;0.16;65.79;101632.97;5000976;28;20550;-69
2024/01/22 08:28:28;;;;;;;12.88;6.15;;;;;;;0.72;65.35;101651.78;5015303;28;20039;-70
2024/01/22 08:30:56;;;;;;;11.10;6.25;;;;;;;0.86;65.16;101603.91;5006727;28;20128;-70
2024/01/22 08:33:22;;;;;;;13.73;5.70;;;;;;;1.01;65.10;101637.22;5005018;28;20121;-69
2024/01/22 08:35:55;;;;;;;12.20;5.85;;;;;;;1.25;64.91;101660.91;4983700;28;20049;-69
2024/01/22 08:38:20;;;;;;;12.07;5.78;;;;;;;1.29;64.76;101660.28;5015810;28;20061;-71
2024/01/22 08:40:47;;;;;;;12.75;6.78;;;;;;;1.14;64.73;101639.75;5004536;28;20038;-71
2024/01/22 08:43:14;;;;;;;10.27;5.78;;;;;;;1.36;64.58;101648.69;5020535;28;20562;-66
2024/01/22 08:45:41;;;;;;;10.63;5.82;;;;;;;1.27;64.53;101654.19;5017490;28;20042;-71
2024/01/22 08:48:16;;;;;;;11.90;6.00;;;;;;;1.15;64.31;101618.44;4994113;28;20041;-70
2024/01/22 08:50:46;;;;;;;10.02;6.00;;;;;;;1.25;64.33;101630.13;5005287;28;20060;-70
2024/01/22 08:53:21;;;;;;;10.30;6.05;;;;;;;1.36;64.37;101656.41;4982530;28;20049;-72
2024/01/22 08:55:48;;;;;;;11.63;5.97;;;;;;;1.19;63.83;101611.81;5019550;28;20042;-72
2024/01/22 08:58:25;;;;;;;10.55;5.10;;;;;;;1.12;63.88;101643.91;5003983;28;20062;-69
2024/01/22 09:00:53;;;;;;;11.98;5.63;;;;;;;0.98;63.43;101625.13;4999233;28;20049;-70
2024/01/22 09:03:24;;;;;;;9.45;5.20;;;;;;;0.88;63.74;101623.69;4987928;28;20125;-71
2024/01/22 09:06:05;;;;;;;10.25;5.13;;;;;;;1.02;62.88;101660.41;5005947;28;20562;-71
2024/01/22 09:08:34;;;;;;;15.07;5.28;;;;;;;0.94;63.49;101643.69;5022328;28;20038;-69
2024/01/22 09:11:02;;;;;;;11.48;5.15;;;;;;;0.73;62.52;101633.03;4988647;28;20043;-72
2024/01/22 09:13:37;;;;;;;10.50;5.28;;;;;;;0.67;62.95;101643.78;5014584;28;20041;-71
2024/01/22 09:16:10;;;;;;;9.98;5.25;;;;;;;0.51;63.11;101624.03;4992556;28;20106;-71
2024/01/22 09:18:43;;;;;;;9.40;4.60;;;;;;;0.41;62.90;101614.91;4987469;28;20057;-74
2024/01/22 09:21:40;;;;;;;12.40;5.40;;;;;;;1.04;63.16;101628.06;5008349;28;20041;-73
2024/01/22 09:24:11;;;;;;;10.70;4.75;;;;;;;1.59;63.15;101621.78;5005692;28;20189;-71
2024/01/22 09:26:40;;;;;;;11.40;5.15;;;;;;;1.80;62.59;101616.09;5007158;28;20056;-72
2024/01/22 09:29:31;;;;;;;12.30;5.28;;;;;;;1.93;62.98;101618.56;4988658;28;20042;-75
2024/01/22 09:31:57;;;;;;;10.55;5.28;;;;;;;1.47;62.92;101568.09;4989014;28;20045;-74
2024/01/22 09:34:26;;;;;;;9.77;5.10;;;;;;;1.59;61.75;101610.66;5018371;28;20046;-71
2024/01/22 09:36:53;;;;;;;12.52;4.93;;;;;;;1.29;62.14;101569.59;4972049;28;20052;-70
2024/01/22 09:39:22;;;;;;;11.30;4.80;;;;;;;1.43;61.30;101621.72;4987718;28;20061;-71
2024/01/22 09:41:57;;;;;;;9.50;4.70;;;;;;;1.37;61.34;101612.00;5004395;28;20064;-67
2024/01/22 09:44:25;;;;;;;8.68;4.63;;;;;;;1.31;62.02;101593.66;5018236;28;20041;-70
2024/01/22 09:46:52;;;;;;;11.63;4.93;;;;;;;1.79;61.73;101610.09;5001703;28;20057;-68
2024/01/22 09:49:25;;;;;;;10.70;4.95;;;;;;;1.98;61.92;101546.91;5018749;28;20056;-69
2024/01/22 09:52:19;;;;;;;7.90;4.53;;;;;;;3.59;62.56;101554.13;5003187;28;20038;-70
2024/01/22 09:54:45;;;;;;;8.65;4.78;;;;;;;5.24;63.07;101515.75;5002861;28;20068;-67
2024/01/22 09:57:24;;;;;;;7.47;4.50;;;;;;;6.41;61.50;101523.66;5002060;28;20041;-68
2024/01/22 09:59:52;;;;;;;9.55;4.50;;;;;;;7.50;60.57;101554.03;5019801;28;20041;-69
2024/01/22 10:02:19;;;;;;;8.77;5.28;;;;;;;8.03;60.29;101540.97;5001092;28;20034;-70
2024/01/22 10:04:46;;;;;;;9.77;4.72;;;;;;;8.57;60.11;101537.31;4991315;28;20041;-72
2024/01/22 10:07:18;;;;;;;8.52;4.55;;;;;;;9.28;59.04;101532.16;5016915;28;20105;-78
2024/01/22 10:09:51;;;;;;;6.68;4.60;;;;;;;8.23;54.43;101481.00;4972243;28;20073;-72
2024/01/22 10:12:18;;;;;;;8.30;5.03;;;;;;;7.51;55.37;101538.53;5027027;28;20038;-76
2024/01/22 10:14:45;;;;;;;8.50;4.65;;;;;;;6.27;54.25;101474.03;4998862;28;20069;-70
2024/01/22 10:17:27;;;;;;;7.22;4.25;;;;;;;5.43;54.67;101541.50;5003955;28;20045;-74
2024/01/22 10:20:22;;;;;;;7.88;5.07;;;;;;;3.84;54.58;101452.28;4999699;28;20046;-75
2024/01/22 10:23:03;;;;;;;10.90;4.70;;;;;;;3.45;54.63;101541.50;4998532;28;20140;-70
2024/01/22 10:25:35;;;;;;;9.70;4.80;;;;;;;2.86;54.49;101543.78;4999155;28;20096;-69
2024/01/22 10:28:50;;;;;;;7.43;4.78;;;;;;;2.02;54.81;101518.03;4983872;28;20042;-74
2024/01/22 10:31:23;;;;;;;8.02;4.38;;;;;;;1.21;55.49;101489.66;4996867;28;20060;-73
2024/01/22 10:34:07;;;;;;;9.32;5.13;;;;;;;1.38;55.69;101530.75;4985741;28;20050;-70
2024/01/22 10:36:36;;;;;;;7.15;4.22;;;;;;;1.05;55.96;101495.59;4979950;28;20045;-72
2024/01/22 10:39:09;;;;;;;8.48;4.72;;;;;;;0.53;55.94;101479.00;5002160;28;20053;-72
2024/01/22 10:41:40;;;;;;;6.82;3.70;;;;;;;0.18;55.61;101531.53;4973675;28;20050;-71
2024/01/22 10:44:11;;;;;;;9.00;4.72;;;;;;;-0.17;56.23;101556.72;4967579;28;20105;-71
2024/01/22 10:46:49;;;;;;;9.65;3.85;;;;;;;-0.74;56.48;101530.06;4978147;28;20720;-72
2024/01/22 10:49:20;;;;;;;6.50;3.63;;;;;;;-1.37;56.77;101516.59;4998779;28;20057;-71
2024/01/22 10:51:50;;;;;;;9.25;4.05;;;;;;;-1.41;57.53;101566.59;5000176;28;20052;-70
2024/01/22 10:54:16;;;;;;;7.72;3.85;;;;;;;-1.86;57.53;101522.69;4994347;28;20310;-75
2024/01/22 10:56:51;;;;;;;7.35;3.60;;;;;;;-2.19;58.10;101509.38;5003663;28;20045;-70
2024/01/22 10:59:36;;;;;;;7.47;3.42;;;;;;;-2.06;58.45;101556.13;5005202;28;20462;-69
2024/01/22 11:02:09;;;;;;;7.85;4.13;;;;;;;-2.44;58.26;101527.16;5000882;28;20038;-70
2024/01/22 11:04:45;;;;;;;6.82;3.60;;;;;;;-2.38;58.84;101544.56;5015574;28;20037;-73
2024/01/22 11:07:14;;;;;;;10.23;5.05;;;;;;;-2.34;59.21;101572.06;4988662;28;20042;-69
2024/01/22 11:09:47;;;;;;;9.43;3.72;;;;;;;-2.56;59.21;101545.03;5005314;28;20033;-75
2024/01/22 11:12:22;;;;;;;6.70;3.50;;;;;;;-2.71;59.52;101524.41;5026521;28;20049;-76
2024/01/22 11:14:53;;;;;;;7.60;4.00;;;;;;;-2.93;59.78;101501.53;5014901;28;20099;-70
2024/01/22 11:17:23;;;;;;;7.93;3.83;;;;;;;-2.63;60.81;101537.69;5013713;28;20119;-70
2024/01/22 11:20:23;;;;;;;9.38;3.88;;;;;;;-2.73;60.21;101549.75;5005517;28;20025;-74
2024/01/22 11:23:04;;;;;;;7.80;3.70;;;;;;;-2.68;61.25;101554.31;5000719;28;20057;-69
2024/01/22 11:25:33;;;;;;;7.75;3.88;;;;;;;-2.90;60.95;101509.41;5002854;28;20041;-72
2024/01/22 11:28:15;;;;;;;7.00;3.35;;;;;;;-2.73;61.37;101534.47;4986545;28;20041;-72
2024/01/22 11:30:47;;;;;;;7.20;3.53;;;;;;;-2.73;61.32;101519.16;4985823;28;20028;-71
2024/01/22 11:33:25;;;;;;;7.97;4.13;;;;;;;-2.57;61.67;101539.00;5013988;28;20423;-70